sensor_id;sensor_type;location;lat;lon;timestamp;pressure;altitude;pressure_sealevel;temperature;humidity
64933;BME280;51446;53.850;10.662;2023-01-26T00:00:53;102365.72;;;-0.65;100.00
64933;BME280;51446;53.850;10.662;2023-01-26T00:03:19;102365.94;;;-0.82;100.00
64933;BME280;51446;53.850;10.662;2023-01-26T00:05:44;102369.13;;;-0.56;100.00
64933;BME280;51446;53.850;10.662;2023-01-26T00:08:10;102358.56;;;-0.48;100.00
64933;BME280;51446;53.850;10.662;2023-01-26T00:10:37;102349.97;;;-0.89;100.00
64933;BME280;51446;53.850;10.662;2023-01-26T00:13:04;102363.59;;;-0.90;100.00
64933;BME280;51446;53.850;10.662;2023-01-26T00:15:34;102348.91;;;-0.51;100.00
64933;BME280;51446;53.850;10.662;2023-01-26T00:18:00;102351.06;;;-0.66;100.00
64933;BME280;51446;53.850;10.662;2023-01-26T00:20:26;102353.28;;;-0.60;100.00
64933;BME280;51446;53.850;10.662;2023-01-26T00:22:52;102356.75;;;-0.60;100.00
64933;BME280;51446;53.850;10.662;2023-01-26T00:25:17;102342.41;;;-0.66;100.00
64933;BME280;51446;53.850;10.662;2023-01-26T00:27:42;102347.31;;;-0.70;100.00
64933;BME280;51446;53.850;10.662;2023-01-26T00:30:08;102341.38;;;-0.79;100.00
64933;BME280;51446;53.850;10.662;2023-01-26T00:32:34;102339.72;;;-0.58;100.00
64933;BME280;51446;53.850;10.662;2023-01-26T00:35:00;102340.03;;;-0.44;100.00
64933;BME280;51446;53.850;10.662;2023-01-26T00:37:25;102330.84;;;-0.61;100.00
64933;BME280;51446;53.850;10.662;2023-01-26T00:39:50;102320.28;;;-0.64;100.00
64933;BME280;51446;53.850;10.662;2023-01-26T00:42:15;102320.69;;;-0.29;100.00
64933;BME280;51446;53.850;10.662;2023-01-26T00:44:41;102325.84;;;-0.49;100.00
64933;BME280;51446;53.850;10.662;2023-01-26T00:47:09;102321.75;;;-0.47;100.00
64933;BME280;51446;53.850;10.662;2023-01-26T00:49:34;102324.94;;;-0.40;100.00
64933;BME280;51446;53.850;10.662;2023-01-26T00:52:00;102312.72;;;-0.32;100.00
64933;BME280;51446;53.850;10.662;2023-01-26T00:54:26;102315.16;;;-0.23;100.00
64933;BME280;51446;53.850;10.662;2023-01-26T00:56:51;102313.75;;;-0.20;100.00
64933;BME280;51446;53.850;10.662;2023-01-26T00:59:17;102310.41;;;-0.08;100.00
64933;BME280;51446;53.850;10.662;2023-01-26T01:01:42;102306.03;;;-0.20;100.00
64933;BME280;51446;53.850;10.662;2023-01-26T01:04:08;102297.41;;;-0.20;100.00
64933;BME280;51446;53.850;10.662;2023-01-26T01:06:33;102301.88;;;-0.48;100.00
64933;BME280;51446;53.850;10.662;2023-01-26T01:08:59;102305.56;;;-0.76;100.00
64933;BME280;51446;53.850;10.662;2023-01-26T01:11:24;102302.34;;;-0.83;100.00
64933;BME280;51446;53.850;10.662;2023-01-26T01:13:49;102288.53;;;-0.84;100.00
64933;BME280;51446;53.850;10.662;2023-01-26T01:16:15;102301.56;;;-0.82;100.00
64933;BME280;51446;53.850;10.662;2023-01-26T01:18:40;102304.59;;;-0.97;100.00
64933;BME280;51446;53.850;10.662;2023-01-26T01:21:07;102302.50;;;-0.61;100.00
64933;BME280;51446;53.850;10.662;2023-01-26T01:23:32;102308.69;;;-0.59;100.00
64933;BME280;51446;53.850;10.662;2023-01-26T01:25:59;102309.38;;;-0.31;100.00
64933;BME280;51446;53.850;10.662;2023-01-26T01:28:24;102309.88;;;-0.25;100.00
64933;BME280;51446;53.850;10.662;2023-01-26T01:30:49;102315.53;;;-0.49;100.00
64933;BME280;51446;53.850;10.662;2023-01-26T01:33:15;102302.91;;;-0.05;100.00
64933;BME280;51446;53.850;10.662;2023-01-26T01:35:40;102303.69;;;-0.37;100.00
64933;BME280;51446;53.850;10.662;2023-01-26T01:38:05;102300.75;;;-0.42;100.00
64933;BME280;51446;53.850;10.662;2023-01-26T01:40:30;102299.56;;;-0.45;100.00
64933;BME280;51446;53.850;10.662;2023-01-26T01:42:56;102297.38;;;-0.51;100.00
64933;BME280;51446;53.850;10.662;2023-01-26T01:47:50;102293.72;;;-0.74;100.00
64933;BME280;51446;53.850;10.662;2023-01-26T01:50:17;102284.25;;;-0.13;100.00
64933;BME280;51446;53.850;10.662;2023-01-26T01:52:42;102296.34;;;-0.12;100.00
64933;BME280;51446;53.850;10.662;2023-01-26T01:55:09;102290.81;;;-0.37;100.00
64933;BME280;51446;53.850;10.662;2023-01-26T01:57:39;102281.25;;;-0.48;100.00
64933;BME280;51446;53.850;10.662;2023-01-26T02:00:12;102284.09;;;-0.04;100.00
64933;BME280;51446;53.850;10.662;2023-01-26T02:02:40;102277.28;;;-0.34;100.00
64933;BME280;51446;53.850;10.662;2023-01-26T02:05:23;102278.66;;;-0.07;100.00
64933;BME280;51446;53.850;10.662;2023-01-26T02:07:50;102282.91;;;-0.59;100.00
64933;BME280;51446;53.850;10.662;2023-01-26T02:10:18;102285.91;;;-0.55;100.00
64933;BME280;51446;53.850;10.662;2023-01-26T02:12:46;102278.56;;;-0.29;100.00
64933;BME280;51446;53.850;10.662;2023-01-26T02:15:13;102276.25;;;-0.37;100.00
64933;BME280;51446;53.850;10.662;2023-01-26T02:17:38;102267.75;;;-0.56;100.00
64933;BME280;51446;53.850;10.662;2023-01-26T02:20:19;102278.19;;;-0.55;100.00
64933;BME280;51446;53.850;10.662;2023-01-26T02:22:54;102272.97;;;-0.65;100.00
64933;BME280;51446;53.850;10.662;2023-01-26T02:25:39;102271.47;;;-0.53;100.00
64933;BME280;51446;53.850;10.662;2023-01-26T02:28:08;102267.06;;;-0.64;100.00
64933;BME280;51446;53.850;10.662;2023-01-26T02:30:33;102261.78;;;-0.45;100.00
64933;BME280;51446;53.850;10.662;2023-01-26T02:32:58;102263.47;;;-0.25;100.00
64933;BME280;51446;53.850;10.662;2023-01-26T02:35:24;102271.88;;;-0.27;100.00
64933;BME280;51446;53.850;10.662;2023-01-26T02:37:49;102260.53;;;-0.50;100.00
64933;BME280;51446;53.850;10.662;2023-01-26T02:42:48;102252.47;;;-0.94;100.00
64933;BME280;51446;53.850;10.662;2023-01-26T02:45:18;102250.84;;;-0.83;100.00
64933;BME280;51446;53.850;10.662;2023-01-26T02:47:44;102248.53;;;-0.49;100.00
64933;BME280;51446;53.850;10.662;2023-01-26T02:50:10;102243.38;;;-0.49;100.00
64933;BME280;51446;53.850;10.662;2023-01-26T02:52:36;102247.63;;;-0.40;100.00
64933;BME280;51446;53.850;10.662;2023-01-26T02:55:01;102250.81;;;-0.01;100.00
64933;BME280;51446;53.850;10.662;2023-01-26T02:57:45;102241.72;;;-0.39;100.00
64933;BME280;51446;53.850;10.662;2023-01-26T03:00:15;102236.66;;;-0.68;100.00
64933;BME280;51446;53.850;10.662;2023-01-26T03:02:41;102226.63;;;-0.44;100.00
64933;BME280;51446;53.850;10.662;2023-01-26T03:05:07;102227.38;;;-0.25;100.00
64933;BME280;51446;53.850;10.662;2023-01-26T03:07:32;102228.56;;;-0.52;100.00
64933;BME280;51446;53.850;10.662;2023-01-26T03:09:57;102224.19;;;-0.43;100.00
64933;BME280;51446;53.850;10.662;2023-01-26T03:12:24;102228.69;;;-0.30;100.00
64933;BME280;51446;53.850;10.662;2023-01-26T03:14:49;102217.59;;;-0.49;100.00
64933;BME280;51446;53.850;10.662;2023-01-26T03:17:35;102226.66;;;-0.55;100.00
64933;BME280;51446;53.850;10.662;2023-01-26T03:20:01;102230.22;;;-0.83;100.00
64933;BME280;51446;53.850;10.662;2023-01-26T03:22:44;102227.28;;;-0.37;100.00
64933;BME280;51446;53.850;10.662;2023-01-26T03:25:36;102225.72;;;-0.76;100.00
64933;BME280;51446;53.850;10.662;2023-01-26T03:28:19;102228.19;;;-0.26;100.00
64933;BME280;51446;53.850;10.662;2023-01-26T03:30:47;102227.50;;;-0.23;100.00
64933;BME280;51446;53.850;10.662;2023-01-26T03:33:13;102222.50;;;-0.63;100.00
64933;BME280;51446;53.850;10.662;2023-01-26T03:35:38;102217.59;;;-0.49;100.00
64933;BME280;51446;53.850;10.662;2023-01-26T03:38:03;102216.84;;;-0.69;100.00
64933;BME280;51446;53.850;10.662;2023-01-26T03:40:29;102217.75;;;-0.58;100.00
64933;BME280;51446;53.850;10.662;2023-01-26T03:43:12;102221.59;;;-0.22;100.00
64933;BME280;51446;53.850;10.662;2023-01-26T03:45:56;102213.59;;;-0.77;100.00
64933;BME280;51446;53.850;10.662;2023-01-26T03:48:40;102216.59;;;-0.51;100.00
64933;BME280;51446;53.850;10.662;2023-01-26T03:51:24;102212.97;;;-0.74;100.00
64933;BME280;51446;53.850;10.662;2023-01-26T03:54:08;102202.91;;;-0.81;100.00
64933;BME280;51446;53.850;10.662;2023-01-26T03:56:53;102212.34;;;-0.61;100.00
64933;BME280;51446;53.850;10.662;2023-01-26T03:59:19;102211.16;;;-0.65;100.00
64933;BME280;51446;53.850;10.662;2023-01-26T04:02:01;102211.44;;;-0.51;100.00
64933;BME280;51446;53.850;10.662;2023-01-26T04:04:45;102214.78;;;-0.53;100.00
64933;BME280;51446;53.850;10.662;2023-01-26T04:07:29;102210.66;;;-0.71;100.00
64933;BME280;51446;53.850;10.662;2023-01-26T04:10:13;102210.66;;;-0.71;100.00
64933;BME280;51446;53.850;10.662;2023-01-26T04:12:38;102220.81;;;-1.03;100.00
64933;BME280;51446;53.850;10.662;2023-01-26T04:15:05;102210.13;;;-0.98;100.00
64933;BME280;51446;53.850;10.662;2023-01-26T04:17:49;102210.91;;;-0.27;100.00
64933;BME280;51446;53.850;10.662;2023-01-26T04:20:33;102210.94;;;-0.47;100.00
64933;BME280;51446;53.850;10.662;2023-01-26T04:23:18;102209.38;;;-0.76;100.00
64933;BME280;51446;53.850;10.662;2023-01-26T04:25:43;102211.94;;;-0.35;100.00
64933;BME280;51446;53.850;10.662;2023-01-26T04:28:09;102212.97;;;-0.33;100.00
64933;BME280;51446;53.850;10.662;2023-01-26T04:30:34;102212.69;;;-0.36;100.00
64933;BME280;51446;53.850;10.662;2023-01-26T04:32:59;102211.28;;;-0.32;100.00
64933;BME280;51446;53.850;10.662;2023-01-26T04:35:24;102211.56;;;-0.60;100.00
64933;BME280;51446;53.850;10.662;2023-01-26T04:37:50;102204.72;;;-0.49;100.00
64933;BME280;51446;53.850;10.662;2023-01-26T04:40:15;102209.63;;;-0.63;100.00
64933;BME280;51446;53.850;10.662;2023-01-26T04:42:40;102204.53;;;0.01;100.00
64933;BME280;51446;53.850;10.662;2023-01-26T04:45:06;102207.16;;;-0.20;100.00
64933;BME280;51446;53.850;10.662;2023-01-26T04:47:31;102199.16;;;-0.33;100.00
64933;BME280;51446;53.850;10.662;2023-01-26T04:49:57;102199.72;;;-0.68;100.00
64933;BME280;51446;53.850;10.662;2023-01-26T04:52:22;102190.94;;;-0.81;100.00
64933;BME280;51446;53.850;10.662;2023-01-26T04:54:47;102188.75;;;-0.87;100.00
64933;BME280;51446;53.850;10.662;2023-01-26T04:57:12;102185.78;;;-0.91;100.00
64933;BME280;51446;53.850;10.662;2023-01-26T04:59:38;102185.03;;;-0.90;100.00
64933;BME280;51446;53.850;10.662;2023-01-26T05:02:03;102183.47;;;-0.88;100.00
64933;BME280;51446;53.850;10.662;2023-01-26T05:04:28;102179.22;;;-0.98;100.00
64933;BME280;51446;53.850;10.662;2023-01-26T05:06:54;102177.53;;;-1.08;100.00
64933;BME280;51446;53.850;10.662;2023-01-26T05:09:19;102177.78;;;-1.05;100.00
64933;BME280;51446;53.850;10.662;2023-01-26T05:11:45;102178.69;;;-1.04;100.00
64933;BME280;51446;53.850;10.662;2023-01-26T05:14:10;102182.16;;;-1.14;100.00
64933;BME280;51446;53.850;10.662;2023-01-26T05:16:35;102179.84;;;-1.21;100.00
64933;BME280;51446;53.850;10.662;2023-01-26T05:19:01;102184.44;;;-1.17;100.00
64933;BME280;51446;53.850;10.662;2023-01-26T05:21:26;102177.53;;;-0.97;100.00
64933;BME280;51446;53.850;10.662;2023-01-26T05:23:53;102181.13;;;-1.06;100.00
64933;BME280;51446;53.850;10.662;2023-01-26T05:26:18;102179.34;;;-1.07;100.00
64933;BME280;51446;53.850;10.662;2023-01-26T05:28:44;102183.56;;;-1.17;100.00
64933;BME280;51446;53.850;10.662;2023-01-26T05:31:09;102189.59;;;-1.17;100.00
64933;BME280;51446;53.850;10.662;2023-01-26T05:33:34;102187.31;;;-1.14;100.00
64933;BME280;51446;53.850;10.662;2023-01-26T05:36:03;102180.75;;;-1.10;100.00
64933;BME280;51446;53.850;10.662;2023-01-26T05:38:29;102184.06;;;-1.11;100.00
64933;BME280;51446;53.850;10.662;2023-01-26T05:40:54;102174.97;;;-1.08;100.00
64933;BME280;51446;53.850;10.662;2023-01-26T05:43:20;102183.69;;;-1.16;100.00
64933;BME280;51446;53.850;10.662;2023-01-26T05:45:45;102183.94;;;-1.13;100.00
64933;BME280;51446;53.850;10.662;2023-01-26T05:48:10;102177.91;;;-1.13;100.00
64933;BME280;51446;53.850;10.662;2023-01-26T05:50:35;102181.38;;;-1.13;100.00
64933;BME280;51446;53.850;10.662;2023-01-26T05:53:01;102178.28;;;-1.09;100.00
64933;BME280;51446;53.850;10.662;2023-01-26T05:55:27;102184.75;;;-1.14;100.00
64933;BME280;51446;53.850;10.662;2023-01-26T05:57:52;102186.66;;;-1.11;100.00
64933;BME280;51446;53.850;10.662;2023-01-26T06:00:17;102190.53;;;-1.06;100.00
64933;BME280;51446;53.850;10.662;2023-01-26T06:02:43;102188.72;;;-1.07;100.00
64933;BME280;51446;53.850;10.662;2023-01-26T06:05:08;102191.41;;;-1.16;100.00
64933;BME280;51446;53.850;10.662;2023-01-26T06:07:34;102193.88;;;-1.07;100.00
64933;BME280;51446;53.850;10.662;2023-01-26T06:09:59;102194.00;;;-1.06;100.00
64933;BME280;51446;53.850;10.662;2023-01-26T06:12:25;102187.72;;;-1.09;100.00
64933;BME280;51446;53.850;10.662;2023-01-26T06:14:52;102182.94;;;-1.15;100.00
64933;BME280;51446;53.850;10.662;2023-01-26T06:17:17;102185.75;;;-1.12;100.00
64933;BME280;51446;53.850;10.662;2023-01-26T06:19:42;102192.47;;;-1.03;100.00
64933;BME280;51446;53.850;10.662;2023-01-26T06:22:09;102174.81;;;-1.19;100.00
64933;BME280;51446;53.850;10.662;2023-01-26T06:24:35;102202.22;;;-1.10;100.00
64933;BME280;51446;53.850;10.662;2023-01-26T06:27:00;102204.94;;;-1.08;100.00
64933;BME280;51446;53.850;10.662;2023-01-26T06:29:26;102190.03;;;-1.02;100.00
64933;BME280;51446;53.850;10.662;2023-01-26T06:31:51;102189.91;;;-1.03;100.00
64933;BME280;51446;53.850;10.662;2023-01-26T06:34:17;102190.91;;;-1.12;100.00
64933;BME280;51446;53.850;10.662;2023-01-26T06:36:42;102185.38;;;-1.06;100.00
64933;BME280;51446;53.850;10.662;2023-01-26T06:39:08;102196.84;;;-1.02;100.00
64933;BME280;51446;53.850;10.662;2023-01-26T06:41:35;102200.72;;;-1.08;100.00
64933;BME280;51446;53.850;10.662;2023-01-26T06:44:00;102195.44;;;-0.99;100.00
64933;BME280;51446;53.850;10.662;2023-01-26T06:46:25;102186.41;;;-1.04;100.00
64933;BME280;51446;53.850;10.662;2023-01-26T06:48:51;102189.41;;;-0.99;100.00
64933;BME280;51446;53.850;10.662;2023-01-26T06:53:51;102199.94;;;-1.07;100.00
64933;BME280;51446;53.850;10.662;2023-01-26T06:56:16;102203.53;;;-1.05;100.00
64933;BME280;51446;53.850;10.662;2023-01-26T06:58:42;102209.44;;;-1.06;100.00
64933;BME280;51446;53.850;10.662;2023-01-26T07:01:11;102211.00;;;-0.97;100.00
64933;BME280;51446;53.850;10.662;2023-01-26T07:03:38;102206.25;;;-1.03;100.00
64933;BME280;51446;53.850;10.662;2023-01-26T07:06:04;102201.84;;;-1.04;100.00
64933;BME280;51446;53.850;10.662;2023-01-26T07:08:29;102205.38;;;-0.93;100.00
64933;BME280;51446;53.850;10.662;2023-01-26T07:10:55;102212.69;;;-0.98;100.00
64933;BME280;51446;53.850;10.662;2023-01-26T07:13:21;102210.13;;;-0.98;100.00
64933;BME280;51446;53.850;10.662;2023-01-26T07:15:46;102212.41;;;-1.01;100.00
64933;BME280;51446;53.850;10.662;2023-01-26T07:18:11;102211.66;;;-1.00;100.00
64933;BME280;51446;53.850;10.662;2023-01-26T07:20:37;102211.91;;;-0.97;100.00
64933;BME280;51446;53.850;10.662;2023-01-26T07:23:02;102213.34;;;-0.90;100.00
64933;BME280;51446;53.850;10.662;2023-01-26T07:25:27;102221.31;;;-0.87;100.00
64933;BME280;51446;53.850;10.662;2023-01-26T07:27:57;102218.63;;;-0.89;100.00
64933;BME280;51446;53.850;10.662;2023-01-26T07:30:23;102215.03;;;-0.91;100.00
64933;BME280;51446;53.850;10.662;2023-01-26T07:32:48;102220.69;;;-0.95;100.00
64933;BME280;51446;53.850;10.662;2023-01-26T07:35:13;102216.94;;;-0.88;100.00
64933;BME280;51446;53.850;10.662;2023-01-26T07:37:38;102224.03;;;-0.85;100.00
64933;BME280;51446;53.850;10.662;2023-01-26T07:40:04;102223.78;;;-0.89;100.00
64933;BME280;51446;53.850;10.662;2023-01-26T07:42:30;102218.50;;;-0.90;100.00
64933;BME280;51446;53.850;10.662;2023-01-26T07:44:55;102221.19;;;-0.89;100.00
64933;BME280;51446;53.850;10.662;2023-01-26T07:47:20;102213.59;;;-0.87;100.00
64933;BME280;51446;53.850;10.662;2023-01-26T07:49:45;102214.66;;;-0.85;100.00
64933;BME280;51446;53.850;10.662;2023-01-26T07:52:11;102218.63;;;-0.78;100.00
64933;BME280;51446;53.850;10.662;2023-01-26T07:54:36;102217.22;;;-0.85;100.00
64933;BME280;51446;53.850;10.662;2023-01-26T07:57:02;102217.09;;;-0.76;100.00
64933;BME280;51446;53.850;10.662;2023-01-26T07:59:31;102212.72;;;-0.77;100.00
64933;BME280;51446;53.850;10.662;2023-01-26T08:01:56;102212.72;;;-0.77;100.00
64933;BME280;51446;53.850;10.662;2023-01-26T08:04:21;102211.16;;;-0.75;100.00
64933;BME280;51446;53.850;10.662;2023-01-26T08:06:46;102213.47;;;-0.78;100.00
64933;BME280;51446;53.850;10.662;2023-01-26T08:09:11;102212.97;;;-0.74;100.00
64933;BME280;51446;53.850;10.662;2023-01-26T08:11:37;102210.13;;;-0.67;100.00
64933;BME280;51446;53.850;10.662;2023-01-26T08:14:02;102220.06;;;-0.72;100.00
64933;BME280;51446;53.850;10.662;2023-01-26T08:16:27;102226.78;;;-0.63;100.00
64933;BME280;51446;53.850;10.662;2023-01-26T08:18:53;102226.88;;;-0.72;100.00
64933;BME280;51446;53.850;10.662;2023-01-26T08:21:18;102228.69;;;-0.61;100.00
64933;BME280;51446;53.850;10.662;2023-01-26T08:23:50;102235.66;;;-0.70;100.00
64933;BME280;51446;53.850;10.662;2023-01-26T08:26:16;102233.31;;;-0.67;100.00
64933;BME280;51446;53.850;10.662;2023-01-26T08:28:43;102234.34;;;-0.65;100.00
64933;BME280;51446;53.850;10.662;2023-01-26T08:31:14;102233.59;;;-0.64;100.00
64933;BME280;51446;53.850;10.662;2023-01-26T08:33:42;102236.94;;;-0.55;100.00
64933;BME280;51446;53.850;10.662;2023-01-26T08:36:10;102231.53;;;-0.47;100.00
64933;BME280;51446;53.850;10.662;2023-01-26T08:38:35;102243.75;;;-0.55;100.00
64933;BME280;51446;53.850;10.662;2023-01-26T08:41:01;102240.16;;;-0.47;100.00
64933;BME280;51446;53.850;10.662;2023-01-26T08:43:27;102231.66;;;-0.46;100.00
64933;BME280;51446;53.850;10.662;2023-01-26T08:45:53;102229.47;;;-0.62;100.00
64933;BME280;51446;53.850;10.662;2023-01-26T08:48:18;102228.94;;;-0.58;100.00
64933;BME280;51446;53.850;10.662;2023-01-26T08:50:44;102228.03;;;-0.48;100.00
64933;BME280;51446;53.850;10.662;2023-01-26T08:53:09;102239.00;;;-0.61;100.00
64933;BME280;51446;53.850;10.662;2023-01-26T08:55:35;102244.00;;;-0.52;100.00
64933;BME280;51446;53.850;10.662;2023-01-26T08:58:01;102242.75;;;-0.57;100.00
64933;BME280;51446;53.850;10.662;2023-01-26T09:00:26;102231.25;;;-0.50;100.00
64933;BME280;51446;53.850;10.662;2023-01-26T09:02:59;102232.81;;;-0.42;100.00
64933;BME280;51446;53.850;10.662;2023-01-26T09:05:25;102236.44;;;-0.30;100.00
64933;BME280;51446;53.850;10.662;2023-01-26T09:07:50;102231.78;;;-0.34;100.00
64933;BME280;51446;53.850;10.662;2023-01-26T09:10:16;102228.97;;;-0.37;100.00
64933;BME280;51446;53.850;10.662;2023-01-26T09:12:41;102226.00;;;-0.42;100.00
64933;BME280;51446;53.850;10.662;2023-01-26T09:15:07;102218.53;;;-0.39;100.00
64933;BME280;51446;53.850;10.662;2023-01-26T09:17:33;102218.78;;;-0.46;100.00
64933;BME280;51446;53.850;10.662;2023-01-26T09:19:58;102221.84;;;-0.29;100.00
64933;BME280;51446;53.850;10.662;2023-01-26T09:22:23;102217.72;;;-0.17;100.00
64933;BME280;51446;53.850;10.662;2023-01-26T09:24:49;102217.72;;;-0.17;100.00
64933;BME280;51446;53.850;10.662;2023-01-26T09:27:14;102218.09;;;-0.12;100.00
64933;BME280;51446;53.850;10.662;2023-01-26T09:29:39;102221.94;;;-0.07;100.00
64933;BME280;51446;53.850;10.662;2023-01-26T09:32:05;102221.03;;;-0.08;100.00
64933;BME280;51446;53.850;10.662;2023-01-26T09:34:30;102228.41;;;-0.12;100.00
64933;BME280;51446;53.850;10.662;2023-01-26T09:36:55;102226.59;;;-0.13;100.00
64933;BME280;51446;53.850;10.662;2023-01-26T09:39:20;102217.88;;;-0.26;100.00
64933;BME280;51446;53.850;10.662;2023-01-26T09:41:48;102214.34;;;-0.16;100.00
64933;BME280;51446;53.850;10.662;2023-01-26T09:44:24;102216.44;;;-0.22;100.00
64933;BME280;51446;53.850;10.662;2023-01-26T09:49:42;102214.59;;;-0.03;100.00
64933;BME280;51446;53.850;10.662;2023-01-26T09:52:17;102215.75;;;-0.09;100.00
64933;BME280;51446;53.850;10.662;2023-01-26T09:54:51;102217.69;;;-0.07;100.00
64933;BME280;51446;53.850;10.662;2023-01-26T09:57:23;102219.34;;;0.03;100.00
64933;BME280;51446;53.850;10.662;2023-01-26T10:00:04;102216.09;;;0.06;100.00
64933;BME280;51446;53.850;10.662;2023-01-26T10:02:45;102215.50;;;-0.02;100.00
64933;BME280;51446;53.850;10.662;2023-01-26T10:05:19;102220.34;;;0.15;100.00
64933;BME280;51446;53.850;10.662;2023-01-26T10:07:46;102211.88;;;0.06;100.00
64933;BME280;51446;53.850;10.662;2023-01-26T10:10:22;102221.66;;;0.10;100.00
64933;BME280;51446;53.850;10.662;2023-01-26T10:12:51;102216.47;;;0.21;100.00
64933;BME280;51446;53.850;10.662;2023-01-26T10:17:49;102210.03;;;0.15;100.00
64933;BME280;51446;53.850;10.662;2023-01-26T10:20:31;102215.03;;;0.24;100.00
64933;BME280;51446;53.850;10.662;2023-01-26T10:23:50;102224.28;;;0.32;100.00
64933;BME280;51446;53.850;10.662;2023-01-26T10:26:15;102215.19;;;0.15;100.00
64933;BME280;51446;53.850;10.662;2023-01-26T10:28:43;102209.09;;;0.25;100.00
64933;BME280;51446;53.850;10.662;2023-01-26T10:31:15;102208.97;;;0.24;100.00
64933;BME280;51446;53.850;10.662;2023-01-26T10:33:54;102201.06;;;0.32;100.00
64933;BME280;51446;53.850;10.662;2023-01-26T10:36:20;102193.25;;;0.21;100.00
64933;BME280;51446;53.850;10.662;2023-01-26T10:38:47;102197.66;;;0.22;100.00
64933;BME280;51446;53.850;10.662;2023-01-26T10:43:49;102201.66;;;0.40;100.00
64933;BME280;51446;53.850;10.662;2023-01-26T10:46:25;102194.22;;;0.33;100.00
64933;BME280;51446;53.850;10.662;2023-01-26T10:48:51;102182.53;;;0.48;100.00
64933;BME280;51446;53.850;10.662;2023-01-26T10:51:23;102180.91;;;0.39;100.00
64933;BME280;51446;53.850;10.662;2023-01-26T10:53:49;102173.56;;;0.43;100.00
64933;BME280;51446;53.850;10.662;2023-01-26T10:56:15;102168.41;;;0.43;100.00
64933;BME280;51446;53.850;10.662;2023-01-26T11:01:13;102175.84;;;0.50;100.00
64933;BME280;51446;53.850;10.662;2023-01-26T11:04:00;102187.28;;;0.32;100.00
64933;BME280;51446;53.850;10.662;2023-01-26T11:06:28;102177.78;;;0.43;100.00
64933;BME280;51446;53.850;10.662;2023-01-26T11:09:07;102181.34;;;0.55;100.00
64933;BME280;51446;53.850;10.662;2023-01-26T11:11:33;102188.56;;;0.59;100.00
64933;BME280;51446;53.850;10.662;2023-01-26T11:14:17;102187.47;;;0.45;100.00
64933;BME280;51446;53.850;10.662;2023-01-26T11:17:06;102182.13;;;0.54;100.00
64933;BME280;51446;53.850;10.662;2023-01-26T11:22:27;102188.97;;;0.76;100.00
64933;BME280;51446;53.850;10.662;2023-01-26T11:25:16;102185.69;;;0.66;100.00
64933;BME280;51446;53.850;10.662;2023-01-26T11:27:58;102190.16;;;0.69;100.00
64933;BME280;51446;53.850;10.662;2023-01-26T11:33:49;102167.81;;;0.58;100.00
64933;BME280;51446;53.850;10.662;2023-01-26T11:36:31;102169.88;;;0.51;100.00
64933;BME280;51446;53.850;10.662;2023-01-26T11:52:52;102169.09;;;0.52;100.00
64933;BME280;51446;53.850;10.662;2023-01-26T11:58:22;102169.34;;;0.56;100.00
64933;BME280;51446;53.850;10.662;2023-01-26T12:00:57;102159.31;;;0.48;100.00
64933;BME280;51446;53.850;10.662;2023-01-26T12:03:44;102145.09;;;0.76;100.00
64933;BME280;51446;53.850;10.662;2023-01-26T12:06:19;102144.94;;;0.62;100.00
64933;BME280;51446;53.850;10.662;2023-01-26T12:09:24;102143.22;;;0.63;100.00
64933;BME280;51446;53.850;10.662;2023-01-26T12:12:03;102140.66;;;0.63;100.00
64933;BME280;51446;53.850;10.662;2023-01-26T12:20:35;102122.22;;;0.92;100.00
64933;BME280;51446;53.850;10.662;2023-01-26T12:25:34;102121.81;;;0.98;100.00
64933;BME280;51446;53.850;10.662;2023-01-26T12:28:04;102113.59;;;0.92;100.00
64933;BME280;51446;53.850;10.662;2023-01-26T12:30:45;102116.72;;;0.88;100.00
64933;BME280;51446;53.850;10.662;2023-01-26T12:33:12;102119.31;;;0.88;100.00
64933;BME280;51446;53.850;10.662;2023-01-26T12:36:03;102111.00;;;0.92;100.00
64933;BME280;51446;53.850;10.662;2023-01-26T12:41:37;102113.47;;;0.90;100.00
64933;BME280;51446;53.850;10.662;2023-01-26T12:46:50;102103.25;;;0.92;100.00
64933;BME280;51446;53.850;10.662;2023-01-26T12:49:34;102110.25;;;0.93;100.00
64933;BME280;51446;53.850;10.662;2023-01-26T12:52:06;102110.59;;;0.97;100.00
64933;BME280;51446;53.850;10.662;2023-01-26T12:57:19;102099.94;;;1.04;100.00
64933;BME280;51446;53.850;10.662;2023-01-26T12:59:46;102096.16;;;1.11;100.00
64933;BME280;51446;53.850;10.662;2023-01-26T13:04:38;102090.06;;;1.11;100.00
64933;BME280;51446;53.850;10.662;2023-01-26T13:07:34;102094.56;;;1.13;100.00
64933;BME280;51446;53.850;10.662;2023-01-26T13:12:49;102103.91;;;1.23;100.00
64933;BME280;51446;53.850;10.662;2023-01-26T13:15:17;102102.31;;;1.25;100.00
64933;BME280;51446;53.850;10.662;2023-01-26T13:20:46;102107.03;;;1.19;100.00
64933;BME280;51446;53.850;10.662;2023-01-26T13:28:37;102107.50;;;1.25;100.00
64933;BME280;51446;53.850;10.662;2023-01-26T13:31:04;102093.56;;;1.35;100.00
64933;BME280;51446;53.850;10.662;2023-01-26T13:33:30;102093.03;;;1.39;100.00
64933;BME280;51446;53.850;10.662;2023-01-26T13:35:57;102094.13;;;1.31;100.00
64933;BME280;51446;53.850;10.662;2023-01-26T13:38:36;102097.09;;;1.35;100.00
64933;BME280;51446;53.850;10.662;2023-01-26T13:41:14;102106.50;;;1.35;100.00
64933;BME280;51446;53.850;10.662;2023-01-26T13:44:03;102101.66;;;1.39;100.00
64933;BME280;51446;53.850;10.662;2023-01-26T13:46:35;102108.09;;;1.33;100.00
64933;BME280;51446;53.850;10.662;2023-01-26T13:49:02;102114.69;;;1.29;100.00
64933;BME280;51446;53.850;10.662;2023-01-26T13:51:30;102115.84;;;1.33;100.00
64933;BME280;51446;53.850;10.662;2023-01-26T13:54:05;102112.03;;;1.51;100.00